Time;durP1;ratioP1;P1;durP2;ratioP2;P2;SDS_P1;SDS_P2;PMS_P1;PMS_P2;Temp;Humidity;BMP_temperature;BMP_pressure;BME280_temperature;BME280_humidity;BME280_pressure;Samples;Min_cycle;Max_cycle;Signal;HPM_P1;HPM_P2
2023/01/18 00:00:31;;;;;;;14.30;6.55;;;-1.10;99.90;;;;;;5089455;28;20052;-62
2023/01/18 00:02:58;;;;;;;8.80;5.13;;;-1.00;99.90;;;;;;5091062;28;20454;-62
2023/01/18 00:05:25;;;;;;;13.65;5.20;;;-1.10;99.90;;;;;;5090296;28;20127;-62
2023/01/18 00:07:52;;;;;;;8.52;5.35;;;-1.10;99.90;;;;;;5084431;28;20058;-62
2023/01/18 00:10:20;;;;;;;12.05;6.07;;;-1.10;99.90;;;;;;5089770;28;20076;-62
2023/01/18 00:12:47;;;;;;;11.68;4.72;;;-1.10;99.90;;;;;;5054142;28;20511;-62
2023/01/18 00:15:13;;;;;;;10.70;4.85;;;-1.10;99.90;;;;;;5090388;28;20569;-61
2023/01/18 00:17:46;;;;;;;13.00;6.30;;;-1.00;99.90;;;;;;5089233;28;20134;-61
2023/01/18 00:20:14;;;;;;;15.02;4.70;;;-1.10;99.90;;;;;;5087165;28;20048;-61
2023/01/18 00:22:41;;;;;;;10.60;5.20;;;-0.90;99.90;;;;;;5087856;28;20094;-61
2023/01/18 00:25:09;;;;;;;11.82;5.00;;;-1.00;99.90;;;;;;5076667;28;20131;-62
2023/01/18 00:27:43;;;;;;;9.50;5.10;;;-1.00;99.90;;;;;;5087402;28;20052;-63
2023/01/18 00:30:10;;;;;;;10.25;5.45;;;-1.10;99.90;;;;;;5076627;28;20554;-61
2023/01/18 00:32:37;;;;;;;7.40;4.25;;;-1.10;99.90;;;;;;5089980;28;20131;-62
2023/01/18 00:35:06;;;;;;;11.20;4.50;;;-1.10;99.90;;;;;;5077000;28;20079;-63
2023/01/18 00:37:34;;;;;;;9.45;4.53;;;-1.10;99.90;;;;;;5088522;28;20408;-62
2023/01/18 00:40:00;;;;;;;9.40;3.92;;;-1.10;99.90;;;;;;5084123;28;20075;-62
2023/01/18 00:45:13;;;;;;;7.07;3.95;;;-1.10;99.90;;;;;;5087456;28;20044;-62
2023/01/18 00:47:40;;;;;;;7.22;4.00;;;-1.00;99.90;;;;;;5092238;28;20053;-61
2023/01/18 00:50:07;;;;;;;11.38;4.05;;;-1.00;99.90;;;;;;5093517;28;20079;-61
2023/01/18 00:52:34;;;;;;;13.80;4.82;;;-1.00;99.90;;;;;;5094424;28;20461;-61
2023/01/18 00:55:02;;;;;;;8.80;4.95;;;-1.00;99.90;;;;;;5093648;28;20052;-62
2023/01/18 00:57:29;;;;;;;9.98;3.60;;;-1.00;99.90;;;;;;5094072;28;20082;-62
2023/01/18 00:59:56;;;;;;;8.90;3.45;;;-1.00;99.90;;;;;;5093005;28;20052;-61
2023/01/18 01:02:23;;;;;;;6.10;3.65;;;-1.00;99.90;;;;;;5094205;28;20059;-61
2023/01/18 01:07:36;;;;;;;7.35;3.97;;;-1.00;99.90;;;;;;5094047;28;20169;-61
2023/01/18 01:10:08;;;;;;;8.82;4.13;;;-1.10;99.90;;;;;;5076863;28;20036;-61
2023/01/18 01:26:23;;;;;;;9.00;3.47;;;-1.00;99.90;;;;;;5089109;28;20076;-61
2023/01/18 01:28:50;;;;;;;8.73;4.10;;;-1.00;99.90;;;;;;5091400;28;20058;-61
2023/01/18 01:31:18;;;;;;;7.45;3.60;;;-1.10;99.90;;;;;;5087404;28;20123;-61
2023/01/18 01:33:45;;;;;;;5.20;3.38;;;-0.90;99.90;;;;;;5093070;28;20067;-61
2023/01/18 01:36:13;;;;;;;11.82;3.72;;;-1.10;99.90;;;;;;5092973;28;20134;-62
2023/01/18 01:38:42;;;;;;;7.72;4.10;;;-0.90;99.90;;;;;;5092592;28;20126;-61
2023/01/18 01:41:18;;;;;;;9.82;4.15;;;-1.10;99.90;;;;;;5093057;28;20040;-61
2023/01/18 01:43:50;;;;;;;12.85;3.97;;;-1.10;99.90;;;;;;5092917;28;20135;-61
2023/01/18 01:46:28;;;;;;;6.53;3.88;;;-1.10;99.90;;;;;;5093423;28;20047;-62
2023/01/18 01:49:02;;;;;;;7.82;3.38;;;-1.10;99.90;;;;;;5092400;28;20048;-61
2023/01/18 01:51:29;;;;;;;8.30;3.78;;;-1.20;99.90;;;;;;5092097;28;20494;-61
2023/01/18 01:53:58;;;;;;;10.13;3.55;;;-1.20;99.90;;;;;;5066358;28;20050;-61
2023/01/18 01:56:25;;;;;;;8.93;3.10;;;-1.20;99.90;;;;;;5088763;28;20075;-61
2023/01/18 01:58:53;;;;;;;9.27;3.60;;;-1.20;99.90;;;;;;5083827;28;20066;-61
2023/01/18 02:01:20;;;;;;;15.23;4.28;;;-1.20;99.90;;;;;;5076421;28;20067;-60
2023/01/18 02:03:46;;;;;;;9.00;3.92;;;-1.20;99.90;;;;;;5093516;28;20066;-60
2023/01/18 02:06:30;;;;;;;8.93;3.78;;;-1.20;99.90;;;;;;5093149;28;20358;-61
2023/01/18 02:09:01;;;;;;;10.07;4.68;;;-1.20;99.90;;;;;;5081513;28;20249;-61
2023/01/18 02:11:28;;;;;;;6.70;3.13;;;-1.30;99.90;;;;;;5092449;28;20063;-61
2023/01/18 02:13:57;;;;;;;5.88;3.10;;;-1.20;99.90;;;;;;5092937;28;20071;-61
2023/01/18 02:16:29;;;;;;;9.90;3.38;;;-1.20;99.90;;;;;;5041903;28;20056;-61
2023/01/18 02:19:32;;;;;;;5.40;3.05;;;-1.20;99.90;;;;;;5079324;28;20048;-61
2023/01/18 02:22:02;;;;;;;10.52;3.38;;;-1.20;99.90;;;;;;5059812;28;20131;-61
2023/01/18 02:24:54;;;;;;;8.35;3.03;;;-1.00;99.90;;;;;;5052945;28;20044;-61
2023/01/18 02:27:30;;;;;;;;;;;-1.20;99.90;;;;;;5091455;28;20051;-61
2023/01/18 02:30:15;;;;;;;6.60;2.92;;;-1.20;99.90;;;;;;5088368;28;19930;-61
2023/01/18 02:32:56;;;;;;;;;;;-1.20;99.90;;;;;;5057966;28;20432;-61
2023/01/18 02:35:44;;;;;;;6.55;2.83;;;-1.20;99.90;;;;;;5079871;28;19924;-62
2023/01/18 02:38:13;;;;;;;7.88;2.75;;;-1.20;99.90;;;;;;5077451;28;20048;-61
2023/01/18 02:41:00;;;;;;;5.63;2.88;;;-1.20;99.90;;;;;;5091832;28;20075;-61
2023/01/18 02:46:32;;;;;;;10.77;3.50;;;-1.30;99.90;;;;;;5078649;28;20564;-61
2023/01/18 02:49:07;;;;;;;5.93;3.30;;;-1.30;99.90;;;;;;5079978;28;20499;-61
2023/01/18 02:51:34;;;;;;;10.13;3.42;;;-1.20;99.90;;;;;;5070317;28;20089;-61
2023/01/18 02:54:01;;;;;;;7.47;3.30;;;-1.30;99.90;;;;;;5077954;28;20468;-61
2023/01/18 02:56:37;;;;;;;4.35;2.72;;;-1.30;99.90;;;;;;5084471;28;20048;-61
2023/01/18 02:59:17;;;;;;;12.05;3.35;;;-1.30;99.90;;;;;;5085492;28;20051;-61
2023/01/18 03:01:47;;;;;;;6.40;2.60;;;-1.40;99.90;;;;;;5075377;28;20140;-61
2023/01/18 03:04:27;;;;;;;8.60;3.22;;;-1.40;99.90;;;;;;5090881;28;20055;-61
2023/01/18 03:07:02;;;;;;;7.10;3.42;;;-1.40;99.90;;;;;;5053111;28;20079;-61
2023/01/18 03:09:30;;;;;;;5.88;2.60;;;-1.40;99.90;;;;;;5055327;28;20052;-63
2023/01/18 03:12:20;;;;;;;13.57;3.47;;;-1.40;99.90;;;;;;5091300;28;20044;-62
2023/01/18 03:14:53;;;;;;;5.93;3.20;;;-1.30;99.90;;;;;;5037965;28;20044;-62
2023/01/18 03:17:38;;;;;;;6.68;2.63;;;-1.30;99.90;;;;;;5090655;28;20481;-62
2023/01/18 03:20:09;;;;;;;6.07;2.60;;;-1.30;99.90;;;;;;5078753;28;20073;-62
2023/01/18 03:25:43;;;;;;;6.07;2.80;;;-1.20;99.90;;;;;;5086641;28;20048;-62
2023/01/18 03:33:54;;;;;;;7.22;2.88;;;-1.40;99.90;;;;;;5061576;28;20082;-62
2023/01/18 03:36:25;;;;;;;9.82;3.38;;;-1.30;99.90;;;;;;5063808;28;20131;-62
2023/01/18 03:38:58;;;;;;;9.20;2.63;;;-1.30;99.90;;;;;;5053134;28;20048;-62
2023/01/18 03:41:27;;;;;;;4.78;2.80;;;-1.30;99.90;;;;;;5088080;28;20398;-61
2023/01/18 03:43:56;;;;;;;4.50;2.67;;;-1.30;99.90;;;;;;5036644;28;20108;-61
2023/01/18 03:46:23;;;;;;;6.93;3.10;;;-1.30;99.90;;;;;;5075677;28;20048;-62
2023/01/18 03:48:50;;;;;;;5.60;3.47;;;-1.30;99.90;;;;;;5072196;28;20052;-62
2023/01/18 03:51:24;;;;;;;6.90;2.65;;;-1.10;99.90;;;;;;5084824;28;20051;-62
2023/01/18 03:53:50;;;;;;;;;;;-1.20;99.90;;;;;;5053291;28;20174;-62
2023/01/18 03:56:37;;;;;;;5.25;2.17;;;-1.20;99.90;;;;;;5085120;28;19920;-62
2023/01/18 03:59:04;;;;;;;7.53;2.85;;;-1.20;99.90;;;;;;5073956;28;20483;-62
2023/01/18 04:01:31;;;;;;;4.80;2.47;;;-1.20;99.90;;;;;;5063765;28;20091;-61
2023/01/18 04:03:58;;;;;;;5.30;2.72;;;-1.20;99.90;;;;;;5084908;28;20053;-62
2023/01/18 04:06:25;;;;;;;8.65;2.58;;;-1.20;99.90;;;;;;5085254;28;20047;-62
2023/01/18 04:08:52;;;;;;;6.20;2.80;;;-1.20;99.90;;;;;;5085569;28;20059;-62
2023/01/18 04:11:18;;;;;;;5.75;3.25;;;-1.10;99.90;;;;;;5067631;28;20040;-62
2023/01/18 04:13:45;;;;;;;5.22;2.50;;;-1.10;99.90;;;;;;5090073;28;20044;-62
2023/01/18 04:16:12;;;;;;;6.50;2.92;;;-1.10;99.90;;;;;;5088978;28;20506;-61
2023/01/18 04:18:39;;;;;;;5.60;2.63;;;-1.10;99.90;;;;;;5080615;28;20336;-62
2023/01/18 04:21:06;;;;;;;7.13;2.95;;;-1.10;99.90;;;;;;5072153;28;20414;-62
2023/01/18 04:23:32;;;;;;;4.20;2.17;;;-1.10;99.90;;;;;;5089923;28;20048;-62
2023/01/18 04:25:59;;;;;;;8.30;2.60;;;-1.10;99.90;;;;;;5089501;28;20040;-63
2023/01/18 04:28:26;;;;;;;4.68;2.22;;;-1.10;99.90;;;;;;5089692;28;20043;-63
2023/01/18 04:30:53;;;;;;;8.77;2.50;;;-1.00;99.90;;;;;;5090029;28;20040;-63
2023/01/18 04:33:21;;;;;;;5.78;3.25;;;-1.00;99.90;;;;;;5090117;28;20040;-62
2023/01/18 04:35:48;;;;;;;5.20;2.88;;;-1.00;99.90;;;;;;5089144;28;20135;-62
2023/01/18 04:38:17;;;;;;;10.85;3.13;;;-1.00;99.90;;;;;;5089022;28;20044;-62
2023/01/18 04:40:44;;;;;;;7.13;3.03;;;-1.00;99.90;;;;;;5089628;28;20076;-63
2023/01/18 04:43:10;;;;;;;4.35;2.33;;;-1.00;99.90;;;;;;5085619;28;20036;-62
2023/01/18 04:45:37;;;;;;;5.93;2.70;;;-1.00;99.90;;;;;;5090240;28;20048;-62
2023/01/18 04:48:04;;;;;;;4.82;2.42;;;-1.00;99.90;;;;;;5089422;28;20425;-62
2023/01/18 04:50:31;;;;;;;4.50;2.25;;;-1.00;99.90;;;;;;5073064;28;20058;-65
2023/01/18 04:52:58;;;;;;;9.15;2.78;;;-0.90;99.90;;;;;;5089368;28;20047;-62
2023/01/18 04:55:26;;;;;;;4.65;2.53;;;-1.00;99.90;;;;;;5089431;28;20384;-62
2023/01/18 04:57:56;;;;;;;7.05;2.80;;;-1.00;99.90;;;;;;5088958;28;20139;-63
2023/01/18 05:00:23;;;;;;;6.60;2.80;;;-0.90;99.90;;;;;;5089953;28;20105;-61
2023/01/18 05:02:50;;;;;;;3.38;2.35;;;-1.00;99.90;;;;;;5083802;28;20340;-61
2023/01/18 05:05:17;;;;;;;3.95;1.95;;;-0.90;99.90;;;;;;5090162;28;20040;-63
2023/01/18 05:07:43;;;;;;;6.10;2.47;;;-1.00;99.90;;;;;;5089387;28;20044;-60
2023/01/18 05:10:10;;;;;;;5.97;2.22;;;-0.90;99.90;;;;;;5089599;28;20139;-61
2023/01/18 05:12:37;;;;;;;7.00;2.35;;;-0.90;99.90;;;;;;5089756;28;20036;-61
2023/01/18 05:15:04;;;;;;;5.45;2.65;;;-0.80;99.90;;;;;;5063204;28;20083;-60
2023/01/18 05:17:33;;;;;;;3.42;1.80;;;-0.80;99.90;;;;;;5071988;28;20053;-61
2023/01/18 05:20:01;;;;;;;6.45;2.75;;;-0.70;99.90;;;;;;5089993;28;20062;-62
2023/01/18 05:22:28;;;;;;;4.32;2.13;;;-0.70;99.90;;;;;;5089305;28;20105;-61
2023/01/18 05:24:54;;;;;;;6.40;2.17;;;-0.70;99.90;;;;;;5089423;28;20048;-61
2023/01/18 05:27:21;;;;;;;2.65;1.77;;;-0.70;99.90;;;;;;5089487;28;20410;-62
2023/01/18 05:29:48;;;;;;;6.47;2.10;;;-0.70;99.90;;;;;;5077614;28;20052;-62
2023/01/18 05:32:14;;;;;;;5.82;2.47;;;-0.70;99.90;;;;;;5089869;28;20050;-62
2023/01/18 05:34:42;;;;;;;9.95;1.77;;;-0.60;99.90;;;;;;5079071;28;20044;-62
2023/01/18 05:37:09;;;;;;;5.53;1.95;;;-0.60;99.90;;;;;;5093662;28;20052;-62
2023/01/18 05:39:36;;;;;;;8.68;2.55;;;-0.60;99.90;;;;;;5092751;28;20080;-62
2023/01/18 05:42:04;;;;;;;4.70;2.05;;;-0.60;99.90;;;;;;5093385;28;20486;-62
2023/01/18 05:44:31;;;;;;;7.75;2.15;;;-0.60;99.90;;;;;;5092805;28;20040;-62
2023/01/18 05:46:58;;;;;;;5.10;2.20;;;-0.60;99.90;;;;;;5093464;28;20048;-62
2023/01/18 05:49:25;;;;;;;4.70;2.05;;;-0.60;99.90;;;;;;5086970;28;20433;-60
2023/01/18 05:51:51;;;;;;;4.60;2.40;;;-0.60;99.90;;;;;;5093201;28;20079;-62
2023/01/18 05:54:18;;;;;;;5.07;2.20;;;-0.60;99.90;;;;;;5092622;28;20460;-61
2023/01/18 05:56:45;;;;;;;8.52;2.20;;;-0.60;99.90;;;;;;5092990;28;20062;-61
2023/01/18 05:59:14;;;;;;;5.95;1.88;;;-0.60;99.90;;;;;;5084726;28;20127;-61
2023/01/18 06:01:41;;;;;;;7.93;2.13;;;-0.50;99.90;;;;;;5081877;28;20048;-61
2023/01/18 06:04:08;;;;;;;4.88;2.15;;;-0.60;99.90;;;;;;5092195;28;20044;-60
2023/01/18 06:06:34;;;;;;;5.47;1.92;;;-0.60;99.90;;;;;;5085689;28;20044;-61
2023/01/18 06:09:02;;;;;;;7.85;2.38;;;-0.60;99.90;;;;;;5092015;28;20163;-61
2023/01/18 06:11:29;;;;;;;9.60;2.03;;;-0.70;99.90;;;;;;5092493;28;20036;-61
2023/01/18 06:13:55;;;;;;;3.53;1.83;;;-0.70;99.90;;;;;;5092058;28;20044;-61
2023/01/18 06:16:23;;;;;;;4.72;2.25;;;-0.70;99.90;;;;;;5092013;28;20048;-60
2023/01/18 06:18:50;;;;;;;3.58;1.77;;;-0.70;99.90;;;;;;5074822;28;20056;-61
2023/01/18 06:21:17;;;;;;;4.00;2.13;;;-0.60;99.90;;;;;;5092618;28;20052;-61
2023/01/18 06:23:44;;;;;;;4.15;1.95;;;-0.60;99.90;;;;;;5093041;28;20093;-61
2023/01/18 06:26:11;;;;;;;3.67;1.77;;;-0.60;99.90;;;;;;5092458;28;20052;-62
2023/01/18 06:28:38;;;;;;;2.78;1.88;;;-0.60;99.90;;;;;;5092695;28;20040;-61
2023/01/18 06:31:07;;;;;;;2.42;1.35;;;-0.60;99.90;;;;;;5094777;28;21415;-61
2023/01/18 06:33:33;;;;;;;4.70;2.08;;;-0.60;99.90;;;;;;5093774;28;20085;-61
2023/01/18 06:36:00;;;;;;;7.28;2.00;;;-0.50;99.90;;;;;;5092614;28;20036;-62
2023/01/18 06:38:28;;;;;;;4.38;2.58;;;-0.50;99.90;;;;;;5080471;28;20134;-61
2023/01/18 06:40:55;;;;;;;4.13;2.10;;;-0.50;99.90;;;;;;5091780;28;20486;-61
2023/01/18 06:43:22;;;;;;;4.90;2.85;;;-0.50;99.90;;;;;;5092437;28;20048;-61
2023/01/18 06:45:56;;;;;;;2.75;1.77;;;-0.40;99.90;;;;;;5092056;28;20279;-61
2023/01/18 06:48:23;;;;;;;6.50;1.77;;;-0.40;99.90;;;;;;5092142;28;20523;-61
2023/01/18 06:50:53;;;;;;;3.78;1.40;;;-0.40;99.90;;;;;;5091786;28;20579;-61
2023/01/18 06:53:20;;;;;;;4.40;1.85;;;-0.40;99.90;;;;;;5091598;28;20048;-61
2023/01/18 06:55:57;;;;;;;9.10;1.73;;;-0.30;99.90;;;;;;5091330;28;20087;-61
2023/01/18 06:58:27;;;;;;;5.78;1.95;;;-0.30;99.90;;;;;;5091048;28;20047;-61
2023/01/18 07:00:55;;;;;;;5.78;1.83;;;-0.30;99.90;;;;;;5091628;28;20048;-61
2023/01/18 07:03:23;;;;;;;3.88;1.63;;;-0.30;99.90;;;;;;5079237;28;20047;-61
2023/01/18 07:05:51;;;;;;;5.03;2.17;;;-0.30;99.90;;;;;;5090607;28;20050;-62
2023/01/18 07:08:19;;;;;;;3.55;2.15;;;-0.30;99.90;;;;;;5076561;28;20449;-61
2023/01/18 07:10:51;;;;;;;4.97;2.10;;;-0.30;99.90;;;;;;5091158;28;20054;-61
2023/01/18 07:13:18;;;;;;;5.43;1.85;;;-0.20;99.90;;;;;;5091782;28;20044;-63
2023/01/18 07:15:45;;;;;;;6.38;2.03;;;-0.20;99.90;;;;;;4731519;28;10000073;-61
2023/01/18 07:18:12;;;;;;;7.00;2.22;;;-0.10;99.90;;;;;;5076109;28;20048;-62
2023/01/18 07:20:39;;;;;;;7.38;1.63;;;-0.10;99.90;;;;;;5086881;28;20547;-61
2023/01/18 07:23:05;;;;;;;9.77;2.63;;;-0.10;99.90;;;;;;5082566;28;20048;-62
2023/01/18 07:25:32;;;;;;;7.47;2.50;;;-0.10;99.90;;;;;;5074467;28;20045;-62
2023/01/18 07:27:59;;;;;;;6.32;2.88;;;-0.10;99.90;;;;;;5079549;28;20483;-62
2023/01/18 07:30:28;;;;;;;8.02;2.75;;;-0.10;99.90;;;;;;5087826;28;20052;-62
2023/01/18 07:32:54;;;;;;;8.85;2.30;;;0.00;99.90;;;;;;5075308;28;20044;-61
2023/01/18 07:35:22;;;;;;;7.20;2.03;;;-0.10;99.90;;;;;;5088393;28;20157;-61
2023/01/18 07:37:49;;;;;;;8.02;2.15;;;-0.10;99.90;;;;;;5111952;28;20040;-62
2023/01/18 07:40:16;;;;;;;3.25;1.98;;;-0.10;99.90;;;;;;5103314;28;20033;-62
2023/01/18 07:42:43;;;;;;;12.88;2.10;;;-0.10;99.90;;;;;;5098594;28;20032;-62
2023/01/18 07:45:12;;;;;;;3.42;2.20;;;-0.10;99.90;;;;;;5112357;28;20103;-62
2023/01/18 07:47:44;;;;;;;6.07;2.17;;;-0.10;99.90;;;;;;5111575;28;20051;-62
2023/01/18 07:50:11;;;;;;;6.03;2.33;;;-0.10;99.90;;;;;;5111608;28;20032;-60
2023/01/18 07:52:37;;;;;;;7.53;3.00;;;-0.10;99.90;;;;;;5110341;28;20043;-63
2023/01/18 07:55:05;;;;;;;8.45;2.58;;;-0.10;99.90;;;;;;5111784;28;20027;-62
2023/01/18 07:57:32;;;;;;;4.45;2.13;;;-0.10;99.90;;;;;;5094594;28;20062;-61
2023/01/18 07:59:59;;;;;;;7.47;2.10;;;-0.20;99.90;;;;;;5106386;28;20048;-62
2023/01/18 08:02:26;;;;;;;3.55;2.10;;;-0.20;99.90;;;;;;5107577;28;20032;-61
2023/01/18 08:04:52;;;;;;;7.05;2.05;;;-0.20;99.90;;;;;;5099965;28;20055;-61
2023/01/18 08:07:19;;;;;;;7.75;2.30;;;-0.20;99.90;;;;;;5124063;28;20035;-62
2023/01/18 08:09:46;;;;;;;9.57;2.78;;;0.00;99.90;;;;;;5116273;28;20064;-63
2023/01/18 08:12:16;;;;;;;6.25;1.98;;;-0.10;99.90;;;;;;5112296;28;20070;-63
2023/01/18 08:14:44;;;;;;;6.18;3.47;;;-0.20;99.90;;;;;;5111622;28;20040;-63
2023/01/18 08:17:11;;;;;;;4.85;1.90;;;-0.20;99.90;;;;;;5093940;28;20038;-62
2023/01/18 08:19:38;;;;;;;5.85;2.30;;;-0.10;99.90;;;;;;5112064;28;20043;-62
2023/01/18 08:22:05;;;;;;;9.18;2.28;;;-0.10;99.90;;;;;;5063819;28;20067;-62
2023/01/18 08:24:32;;;;;;;10.38;2.60;;;-0.10;99.90;;;;;;5085874;28;20096;-62
2023/01/18 08:26:59;;;;;;;9.05;1.90;;;-0.10;99.90;;;;;;5111580;28;20036;-62
2023/01/18 08:29:26;;;;;;;7.07;3.55;;;0.10;99.90;;;;;;5112113;28;20067;-62
2023/01/18 08:31:53;;;;;;;5.45;2.72;;;-0.10;99.90;;;;;;5111320;28;20070;-62
2023/01/18 08:34:20;;;;;;;8.95;2.03;;;-0.10;99.90;;;;;;5096452;28;20032;-63
2023/01/18 08:36:49;;;;;;;5.63;2.08;;;-0.10;99.90;;;;;;5111623;28;20116;-62
2023/01/18 08:39:16;;;;;;;6.55;2.40;;;-0.10;99.90;;;;;;5111745;28;20058;-62
2023/01/18 08:41:45;;;;;;;5.43;2.60;;;0.00;99.90;;;;;;5112248;28;20040;-61
2023/01/18 08:44:12;;;;;;;9.18;3.00;;;0.10;99.90;;;;;;5112026;28;20085;-62
2023/01/18 08:46:39;;;;;;;7.70;2.88;;;0.00;99.90;;;;;;5106025;28;20020;-62
2023/01/18 08:49:06;;;;;;;4.55;2.90;;;0.10;99.90;;;;;;5112209;28;20042;-61
2023/01/18 08:51:33;;;;;;;4.20;2.17;;;0.10;99.90;;;;;;5111581;28;20048;-62
2023/01/18 08:54:00;;;;;;;9.85;3.13;;;-0.40;99.90;;;;;;5094566;28;20052;-66
2023/01/18 08:56:26;;;;;;;5.25;2.42;;;0.10;99.90;;;;;;5111376;28;20068;-61
2023/01/18 08:58:53;;;;;;;6.68;3.05;;;0.10;99.90;;;;;;5111699;28;20040;-61
2023/01/18 09:01:21;;;;;;;10.02;3.55;;;0.10;99.90;;;;;;5098059;28;20046;-61
2023/01/18 09:03:49;;;;;;;3.70;2.25;;;0.10;99.90;;;;;;5111066;28;20048;-62
2023/01/18 09:06:16;;;;;;;7.13;3.20;;;0.10;99.90;;;;;;5077894;28;20071;-61
2023/01/18 09:08:45;;;;;;;3.95;2.55;;;0.20;99.90;;;;;;5109786;28;20044;-61
2023/01/18 09:11:13;;;;;;;6.18;2.10;;;0.20;99.90;;;;;;5107658;28;20167;-61
2023/01/18 09:13:40;;;;;;;12.45;3.13;;;0.20;99.90;;;;;;5113244;28;20152;-62
2023/01/18 09:16:25;;;;;;;7.38;2.28;;;0.10;99.90;;;;;;5114657;28;20042;-61
2023/01/18 09:18:54;;;;;;;5.40;2.80;;;0.20;99.90;;;;;;5109138;28;20092;-61
2023/01/18 09:21:20;;;;;;;6.00;3.03;;;0.30;99.90;;;;;;5112670;28;20066;-61
2023/01/18 09:23:47;;;;;;;3.90;2.03;;;0.30;99.90;;;;;;5086678;28;20036;-60
2023/01/18 09:26:19;;;;;;;8.65;2.67;;;0.50;99.90;;;;;;5103305;28;20062;-60
2023/01/18 09:28:48;;;;;;;9.48;2.65;;;0.40;99.90;;;;;;5107473;28;20058;-60
2023/01/18 09:31:15;;;;;;;5.13;1.88;;;0.50;99.90;;;;;;5115666;28;20047;-62
2023/01/18 09:33:42;;;;;;;7.00;2.40;;;0.50;99.90;;;;;;5116644;28;20028;-60
2023/01/18 09:36:20;;;;;;;12.73;3.65;;;0.70;99.90;;;;;;5116727;28;20055;-61
2023/01/18 09:38:47;;;;;;;5.00;2.78;;;0.60;99.90;;;;;;5116088;28;20036;-60
2023/01/18 09:42:03;;;;;;;4.45;2.22;;;0.60;99.90;;;;;;5116107;28;20039;-61
2023/01/18 09:44:33;;;;;;;7.70;2.55;;;0.70;99.90;;;;;;5096331;28;20092;-61
2023/01/18 09:47:25;;;;;;;10.45;2.78;;;0.70;99.90;;;;;;5116001;28;20103;-61
2023/01/18 09:49:58;;;;;;;8.80;2.28;;;0.80;99.90;;;;;;5116403;28;20044;-62
2023/01/18 09:52:31;;;;;;;14.25;2.75;;;0.80;99.90;;;;;;5103222;28;20070;-61
2023/01/18 09:55:48;;;;;;;7.88;3.08;;;0.90;99.90;;;;;;5117582;28;20035;-61
2023/01/18 09:58:36;;;;;;;6.28;2.63;;;0.90;99.90;;;;;;5068544;28;20060;-63
2023/01/18 10:01:17;;;;;;;9.90;2.53;;;1.00;99.90;;;;;;5080051;28;20043;-61
2023/01/18 10:04:04;;;;;;;8.80;2.30;;;1.00;99.90;;;;;;5106284;28;20036;-61
2023/01/18 10:06:46;;;;;;;8.93;2.08;;;1.10;99.90;;;;;;5099916;28;20091;-61
2023/01/18 10:09:35;;;;;;;6.35;2.55;;;1.20;99.90;;;;;;5099870;28;20063;-62
2023/01/18 10:12:03;;;;;;;9.68;2.90;;;1.20;99.90;;;;;;5079293;28;20047;-61
2023/01/18 10:14:44;;;;;;;8.77;2.85;;;1.30;99.90;;;;;;5074830;28;20084;-62
2023/01/18 10:17:24;;;;;;;4.90;1.67;;;1.30;99.90;;;;;;5075828;28;20040;-63
2023/01/18 10:19:51;;;;;;;4.80;2.17;;;1.40;99.90;;;;;;5075617;28;20051;-61
2023/01/18 10:22:22;;;;;;;8.68;2.10;;;1.40;99.90;;;;;;5076585;28;20075;-61
2023/01/18 10:24:59;;;;;;;7.25;2.38;;;1.50;99.90;;;;;;5096261;28;20052;-63
2023/01/18 10:27:44;;;;;;;7.30;2.30;;;1.50;99.90;;;;;;5096080;28;20037;-61
2023/01/18 10:30:24;;;;;;;5.18;1.85;;;1.60;99.90;;;;;;5093351;28;20025;-62
2023/01/18 10:32:52;;;;;;;8.73;3.25;;;1.60;99.90;;;;;;5080050;28;20084;-62
2023/01/18 10:35:31;;;;;;;4.30;1.77;;;1.60;99.90;;;;;;5095852;28;20091;-60
2023/01/18 10:38:01;;;;;;;5.60;2.00;;;1.70;99.90;;;;;;5079213;28;20036;-63
2023/01/18 10:40:27;;;;;;;8.13;2.30;;;1.70;99.90;;;;;;5075488;28;20037;-60
2023/01/18 10:43:03;;;;;;;5.00;2.45;;;1.80;99.90;;;;;;5091077;28;20029;-61
2023/01/18 10:45:32;;;;;;;6.25;2.45;;;1.80;99.90;;;;;;5095519;28;20080;-60
2023/01/18 10:48:19;;;;;;;7.15;3.22;;;1.80;99.90;;;;;;5096217;28;20048;-61
2023/01/18 10:50:59;;;;;;;13.45;3.35;;;1.90;99.90;;;;;;5089371;28;20103;-61
2023/01/18 10:53:30;;;;;;;5.00;2.55;;;1.90;99.90;;;;;;5096517;28;20096;-61
2023/01/18 10:56:15;;;;;;;3.70;2.45;;;1.90;99.90;;;;;;5094629;28;20029;-62
2023/01/18 10:58:56;;;;;;;4.05;1.98;;;2.00;99.90;;;;;;5079764;28;20106;-61
2023/01/18 11:01:26;;;;;;;5.80;3.00;;;2.10;99.90;;;;;;5092125;28;20067;-61
2023/01/18 11:03:53;;;;;;;3.20;2.50;;;2.10;99.90;;;;;;5095813;28;20047;-61
2023/01/18 11:06:20;;;;;;;6.85;2.50;;;2.00;99.90;;;;;;5095682;28;20048;-61
2023/01/18 11:08:50;;;;;;;4.05;2.92;;;2.10;99.90;;;;;;5084756;28;20063;-61
2023/01/18 11:14:27;;;;;;;5.78;2.92;;;2.10;99.90;;;;;;5116148;28;20509;-62
2023/01/18 11:17:01;;;;;;;7.15;2.72;;;2.20;99.90;;;;;;5113524;28;20035;-61
2023/01/18 11:19:28;;;;;;;8.60;3.15;;;2.30;99.90;;;;;;5113028;28;20039;-61
2023/01/18 11:21:55;;;;;;;5.97;3.22;;;2.30;99.90;;;;;;5113806;28;20072;-61
2023/01/18 11:24:28;;;;;;;9.43;3.28;;;2.20;99.90;;;;;;5115958;28;20070;-60
2023/01/18 11:27:02;;;;;;;6.50;2.97;;;2.30;99.90;;;;;;5101535;28;20039;-61
2023/01/18 11:29:38;;;;;;;;;;;2.30;99.90;;;;;;5115539;28;20103;-61
2023/01/18 11:32:08;;;;;;;9.68;2.83;;;2.40;99.90;;;;;;5100727;28;19939;-60
2023/01/18 11:34:36;;;;;;;7.95;3.80;;;2.40;99.90;;;;;;5115004;28;20104;-61
2023/01/18 11:37:03;;;;;;;6.40;3.45;;;2.80;99.90;;;;;;5115263;28;20063;-61
2023/01/18 11:39:34;;;;;;;9.82;3.08;;;2.50;99.90;;;;;;5097417;28;20058;-61
2023/01/18 11:42:36;;;;;;;9.52;3.03;;;2.50;99.90;;;;;;5114544;28;20064;-61
2023/01/18 11:45:11;;;;;;;6.30;2.97;;;2.50;99.90;;;;;;4998276;28;20030;-62
2023/01/18 11:47:56;;;;;;;10.20;3.20;;;2.50;99.90;;;;;;5089162;28;20024;-62
2023/01/18 11:50:30;;;;;;;9.18;3.70;;;2.50;99.90;;;;;;5098671;28;20159;-61
2023/01/18 11:53:03;;;;;;;6.90;3.42;;;2.50;99.90;;;;;;5083528;28;20056;-61
2023/01/18 11:55:46;;;;;;;6.45;3.05;;;2.60;99.90;;;;;;5114606;28;20088;-61
2023/01/18 11:58:25;;;;;;;6.07;3.30;;;2.70;99.90;;;;;;5103021;28;20056;-62
2023/01/18 12:01:12;;;;;;;8.93;3.25;;;2.70;99.90;;;;;;5114541;28;20035;-61
2023/01/18 12:04:01;;;;;;;6.50;4.00;;;2.70;99.90;;;;;;5109235;28;20028;-61
2023/01/18 12:06:37;;;;;;;14.07;3.00;;;2.80;99.90;;;;;;5114838;28;20043;-62
2023/01/18 12:09:27;;;;;;;8.65;3.20;;;2.90;99.90;;;;;;5077301;28;20067;-61
2023/01/18 12:12:23;;;;;;;6.75;3.50;;;2.90;99.90;;;;;;5092328;28;20078;-61
2023/01/18 12:15:17;;;;;;;26.88;7.72;;;3.00;99.90;;;;;;5035777;28;20041;-62
2023/01/18 12:18:05;;;;;;;;;;;3.10;99.90;;;;;;5121839;28;20040;-61
2023/01/18 12:21:00;;;;;;;7.60;3.03;;;3.10;99.90;;;;;;5094512;28;19928;-61
2023/01/18 12:23:50;;;;;;;9.57;2.30;;;3.20;99.90;;;;;;5112507;28;20082;-65
2023/01/18 12:26:34;;;;;;;5.72;3.20;;;3.20;99.90;;;;;;5098781;28;20024;-61
2023/01/18 12:29:13;;;;;;;10.50;2.40;;;3.20;99.90;;;;;;5110434;28;20074;-61
2023/01/18 12:31:56;;;;;;;6.35;2.00;;;3.30;99.90;;;;;;5114774;28;20102;-58
2023/01/18 12:34:32;;;;;;;5.47;2.00;;;3.30;99.90;;;;;;5114634;28;20032;-60
2023/01/18 12:37:12;;;;;;;3.42;1.70;;;3.40;99.90;;;;;;5098094;28;20036;-63
2023/01/18 12:40:27;;;;;;;7.00;2.20;;;3.40;99.90;;;;;;5112004;28;20048;-61
2023/01/18 12:43:09;;;;;;;;;;;3.40;99.90;;;;;;5015389;28;20038;-61
2023/01/18 12:46:03;;;;;;;3.97;1.65;;;3.50;99.90;;;;;;5104313;28;19958;-61
2023/01/18 12:48:34;;;;;;;6.53;1.95;;;3.60;99.90;;;;;;5106850;28;20095;-61
2023/01/18 12:51:05;;;;;;;4.97;1.80;;;3.60;99.90;;;;;;5118926;28;20040;-62
2023/01/18 12:53:48;;;;;;;9.73;1.88;;;3.60;99.90;;;;;;5105270;28;20059;-61
2023/01/18 12:56:40;;;;;;;8.93;3.10;;;3.60;99.90;;;;;;5079218;28;20028;-60
2023/01/18 12:59:18;;;;;;;12.07;2.30;;;3.80;99.90;;;;;;5110962;28;20218;-61
2023/01/18 13:02:17;;;;;;;3.22;1.98;;;3.80;99.90;;;;;;5115858;28;20052;-62
2023/01/18 13:04:54;;;;;;;4.15;1.90;;;3.90;99.90;;;;;;5102740;28;20100;-61
2023/01/18 13:07:26;;;;;;;5.65;2.55;;;4.10;99.90;;;;;;5100960;28;20190;-61
2023/01/18 13:09:53;;;;;;;24.30;6.10;;;4.20;99.90;;;;;;5104808;28;20040;-61
2023/01/18 13:12:20;;;;;;;8.15;2.60;;;4.30;99.90;;;;;;5104250;28;20059;-62
2023/01/18 13:14:51;;;;;;;4.50;1.25;;;4.30;99.90;;;;;;5104805;28;20039;-61
2023/01/18 13:17:39;;;;;;;9.07;3.08;;;4.10;99.90;;;;;;5116161;28;21035;-61
2023/01/18 13:20:18;;;;;;;3.30;1.50;;;4.00;99.90;;;;;;5112993;28;20032;-61
2023/01/18 13:22:58;;;;;;;5.65;3.00;;;3.90;99.90;;;;;;5065059;28;20071;-61
2023/01/18 13:25:34;;;;;;;9.23;4.40;;;3.90;99.90;;;;;;5101206;28;20047;-60
2023/01/18 13:28:03;;;;;;;11.77;3.00;;;4.00;99.90;;;;;;5100422;28;20048;-61
2023/01/18 13:30:31;;;;;;;9.10;2.83;;;4.10;99.90;;;;;;5112905;28;20059;-62
2023/01/18 13:32:58;;;;;;;12.32;3.55;;;4.10;99.90;;;;;;5117900;28;20089;-61
2023/01/18 13:35:34;;;;;;;4.15;2.28;;;4.10;99.90;;;;;;5117941;28;20028;-65
2023/01/18 13:38:10;;;;;;;5.03;2.72;;;4.00;99.90;;;;;;5080818;28;20040;-60
2023/01/18 13:40:40;;;;;;;8.82;2.55;;;4.00;99.90;;;;;;5083452;28;20052;-60
2023/01/18 13:43:35;;;;;;;6.47;2.13;;;4.00;99.90;;;;;;5115464;28;20074;-61
2023/01/18 13:46:06;;;;;;;12.75;3.08;;;4.00;99.90;;;;;;5110269;28;20044;-61
2023/01/18 13:48:40;;;;;;;8.90;3.70;;;4.10;99.90;;;;;;5097378;28;20036;-61